Time;durP1;ratioP1;P1;durP2;ratioP2;P2;SDS_P1;SDS_P2;PMS_P1;PMS_P2;Temp;Humidity;BMP_temperature;BMP_pressure;BME280_temperature;BME280_humidity;BME280_pressure;Samples;Min_cycle;Max_cycle;Signal;HPM_P1;HPM_P2
2022/05/06 00:02:05;;;;;;;10.48;6.70;;;10.30;99.90;;;;;;5000073;28;20915;-65
2022/05/06 00:04:31;;;;;;;13.95;7.82;;;10.20;99.90;;;;;;5004712;28;20149;-65
2022/05/06 00:06:57;;;;;;;9.00;6.85;;;10.20;99.90;;;;;;5015933;28;20392;-65
2022/05/06 00:09:23;;;;;;;11.15;7.05;;;10.20;99.90;;;;;;5016609;28;20048;-65
2022/05/06 00:11:49;;;;;;;10.05;6.88;;;10.10;99.90;;;;;;5016521;28;20552;-65
2022/05/06 00:14:14;;;;;;;13.05;7.75;;;10.10;99.90;;;;;;5015452;28;20041;-65
2022/05/06 00:16:40;;;;;;;13.65;7.55;;;10.10;99.90;;;;;;5012582;28;20068;-65
2022/05/06 00:19:06;;;;;;;10.73;6.90;;;10.00;99.90;;;;;;5012046;28;20049;-65
2022/05/06 00:21:31;;;;;;;10.95;6.72;;;10.00;99.90;;;;;;5015737;28;20572;-64
2022/05/06 00:23:57;;;;;;;13.10;7.25;;;10.00;99.90;;;;;;5016215;28;20123;-65
2022/05/06 00:26:22;;;;;;;10.25;7.40;;;9.90;99.90;;;;;;5015543;28;20049;-65
2022/05/06 00:28:48;;;;;;;12.30;8.13;;;9.80;99.90;;;;;;4993023;28;20152;-65
2022/05/06 00:31:13;;;;;;;9.18;6.93;;;9.80;99.90;;;;;;5007059;28;20041;-65
2022/05/06 00:33:39;;;;;;;11.77;6.68;;;9.80;99.90;;;;;;5014275;28;20056;-65
2022/05/06 00:36:05;;;;;;;9.85;7.80;;;9.70;99.90;;;;;;5015413;28;20049;-64
2022/05/06 00:38:31;;;;;;;14.95;7.68;;;9.70;99.90;;;;;;5014023;28;20057;-65
2022/05/06 00:40:57;;;;;;;13.32;6.95;;;9.60;99.90;;;;;;5014731;28;20188;-65
2022/05/06 00:43:27;;;;;;;12.00;8.23;;;9.60;99.90;;;;;;5015834;28;20496;-65
2022/05/06 00:45:57;;;;;;;13.60;6.95;;;9.60;99.90;;;;;;5015522;28;20581;-65
2022/05/06 00:48:26;;;;;;;13.02;7.38;;;9.50;99.90;;;;;;5013795;28;20091;-65
2022/05/06 00:50:53;;;;;;;11.93;7.90;;;9.50;99.90;;;;;;5019502;28;20088;-64
2022/05/06 00:53:19;;;;;;;11.43;6.47;;;9.50;99.90;;;;;;5019208;28;20049;-65
2022/05/06 00:55:45;;;;;;;9.48;7.38;;;9.40;99.90;;;;;;5016936;28;20839;-64
2022/05/06 00:58:11;;;;;;;8.52;6.10;;;9.40;99.90;;;;;;5019055;28;20473;-65
2022/05/06 01:00:36;;;;;;;13.52;7.93;;;9.40;99.90;;;;;;5009998;28;20041;-65
2022/05/06 01:03:02;;;;;;;13.73;8.20;;;9.50;99.90;;;;;;5017124;28;20591;-65
2022/05/06 01:05:29;;;;;;;14.02;7.68;;;9.40;99.90;;;;;;5018388;28;20053;-65
2022/05/06 01:07:56;;;;;;;14.13;7.55;;;9.40;99.90;;;;;;5019340;28;20064;-65
2022/05/06 01:10:22;;;;;;;12.80;8.48;;;9.40;99.90;;;;;;5016326;28;20788;-65
2022/05/06 01:12:48;;;;;;;11.73;8.13;;;9.30;99.90;;;;;;5018993;28;20120;-65
2022/05/06 01:15:22;;;;;;;12.40;7.38;;;9.30;99.90;;;;;;5018117;28;20780;-65
2022/05/06 01:17:49;;;;;;;14.65;7.55;;;9.30;99.90;;;;;;5017129;28;20045;-65
2022/05/06 01:20:16;;;;;;;14.77;7.45;;;9.30;99.90;;;;;;5017730;28;21003;-65
2022/05/06 01:22:47;;;;;;;12.85;6.95;;;9.30;99.90;;;;;;5019017;28;20034;-64
2022/05/06 01:25:14;;;;;;;10.32;6.97;;;9.30;99.90;;;;;;5012371;28;20608;-65
2022/05/06 01:28:01;;;;;;;8.65;6.20;;;9.30;99.90;;;;;;5017919;28;20048;-64
2022/05/06 01:30:42;;;;;;;14.45;8.45;;;9.10;99.90;;;;;;5018107;28;20379;-64
2022/05/06 01:33:12;;;;;;;11.55;6.55;;;9.10;99.90;;;;;;5018370;28;20548;-65
2022/05/06 01:35:44;;;;;;;12.85;7.38;;;9.00;99.90;;;;;;5016868;28;20046;-65
2022/05/06 01:38:15;;;;;;;16.63;8.85;;;9.10;99.90;;;;;;5018348;28;20049;-65
2022/05/06 01:40:50;;;;;;;14.88;9.25;;;9.10;99.90;;;;;;5017454;28;20147;-65
2022/05/06 01:43:17;;;;;;;14.40;7.72;;;9.10;99.90;;;;;;5017505;28;20056;-65
2022/05/06 01:45:45;;;;;;;11.60;7.05;;;9.10;99.90;;;;;;5017715;28;20556;-66
2022/05/06 01:48:12;;;;;;;12.32;6.35;;;9.00;99.90;;;;;;5018869;28;20049;-65
2022/05/06 01:50:39;;;;;;;16.38;8.07;;;9.00;99.90;;;;;;5017345;28;20112;-65
2022/05/06 01:53:08;;;;;;;11.90;7.38;;;9.10;99.90;;;;;;5017390;28;20050;-64
2022/05/06 01:55:33;;;;;;;13.02;7.05;;;9.00;99.90;;;;;;5016629;28;20094;-66
2022/05/06 01:57:59;;;;;;;11.43;7.00;;;9.00;99.90;;;;;;5018112;28;20156;-66
2022/05/06 02:00:25;;;;;;;14.27;8.32;;;9.00;99.90;;;;;;5014648;28;20060;-65
2022/05/06 02:02:51;;;;;;;15.27;7.78;;;10.10;99.90;;;;;;5017683;28;20774;-65
2022/05/06 02:05:17;;;;;;;11.07;6.68;;;9.00;99.90;;;;;;5015534;28;20131;-66
2022/05/06 02:07:51;;;;;;;14.05;8.23;;;9.00;99.90;;;;;;5015800;28;20477;-65
2022/05/06 02:10:18;;;;;;;12.43;6.85;;;9.00;99.90;;;;;;5011057;28;20049;-65
2022/05/06 02:12:47;;;;;;;12.85;8.23;;;9.00;99.90;;;;;;5016432;28;20144;-65
2022/05/06 02:15:17;;;;;;;12.23;7.50;;;9.00;99.90;;;;;;5017223;28;20045;-65
2022/05/06 02:17:43;;;;;;;10.90;8.05;;;9.00;99.90;;;;;;5017176;28;20115;-65
2022/05/06 02:20:11;;;;;;;10.60;7.10;;;8.90;99.90;;;;;;5016741;28;20049;-66
2022/05/06 02:22:38;;;;;;;17.83;9.02;;;8.80;99.90;;;;;;5017497;28;20053;-65
2022/05/06 02:25:09;;;;;;;11.80;7.95;;;8.80;99.90;;;;;;5017146;28;20390;-65
2022/05/06 02:27:37;;;;;;;14.43;7.97;;;8.80;99.90;;;;;;5015058;28;20057;-65
2022/05/06 02:35:33;;;;;;;10.65;6.90;;;8.60;99.90;;;;;;5016377;28;20134;-65
2022/05/06 02:38:00;;;;;;;10.63;7.03;;;8.60;99.90;;;;;;5017490;28;20049;-65
2022/05/06 02:40:25;;;;;;;16.23;8.52;;;8.60;99.90;;;;;;5016096;28;20142;-66
2022/05/06 02:42:51;;;;;;;11.88;8.20;;;8.60;99.90;;;;;;5016678;28;20045;-65
2022/05/06 02:45:17;;;;;;;10.32;6.50;;;8.60;99.90;;;;;;5008861;28;20650;-65
2022/05/06 02:47:42;;;;;;;13.90;7.65;;;8.60;99.90;;;;;;5014756;28;20049;-65
2022/05/06 02:50:08;;;;;;;11.95;7.50;;;8.60;99.90;;;;;;5016638;28;20199;-65
2022/05/06 02:52:34;;;;;;;11.77;5.22;;;8.60;99.90;;;;;;5016766;28;20045;-65
2022/05/06 02:54:59;;;;;;;16.17;7.32;;;8.60;99.90;;;;;;5015646;28;20053;-65
2022/05/06 02:57:26;;;;;;;15.98;8.88;;;8.50;99.90;;;;;;5016225;28;20532;-65
2022/05/06 02:59:51;;;;;;;11.75;8.32;;;8.50;99.90;;;;;;5016660;28;20049;-65
2022/05/06 03:02:17;;;;;;;14.43;8.50;;;8.50;99.90;;;;;;5015777;28;20045;-65
2022/05/06 03:04:42;;;;;;;12.18;7.43;;;8.60;99.90;;;;;;5015860;28;20498;-65
2022/05/06 03:07:08;;;;;;;16.50;7.97;;;8.50;99.90;;;;;;5016706;28;20071;-65
2022/05/06 03:09:35;;;;;;;14.90;10.98;;;8.50;99.90;;;;;;5015216;28;20053;-65
2022/05/06 03:12:01;;;;;;;14.02;7.68;;;8.50;99.90;;;;;;5014117;28;20848;-65
2022/05/06 03:14:26;;;;;;;14.63;9.43;;;8.50;99.90;;;;;;5015250;28;20127;-65
2022/05/06 03:16:52;;;;;;;12.00;7.70;;;8.50;99.90;;;;;;5014031;28;20051;-65
2022/05/06 03:19:17;;;;;;;14.48;7.53;;;8.40;99.90;;;;;;5016386;28;20046;-65
2022/05/06 03:21:50;;;;;;;14.73;7.28;;;8.40;99.90;;;;;;5016227;28;20041;-65
2022/05/06 03:24:16;;;;;;;11.02;7.28;;;8.30;99.90;;;;;;5014324;28;20206;-65
2022/05/06 03:26:42;;;;;;;8.35;6.43;;;8.30;99.90;;;;;;5015293;28;20263;-65
2022/05/06 03:29:07;;;;;;;9.13;6.45;;;8.30;99.90;;;;;;5016664;28;20061;-64
2022/05/06 03:31:33;;;;;;;11.40;6.82;;;8.30;99.90;;;;;;5016263;28;20046;-65
2022/05/06 03:33:59;;;;;;;12.68;7.60;;;8.30;99.90;;;;;;5014579;28;20049;-65
2022/05/06 03:36:25;;;;;;;13.57;7.88;;;8.30;99.90;;;;;;5016121;28;20042;-65
2022/05/06 03:38:50;;;;;;;13.65;8.05;;;8.20;99.90;;;;;;5015268;28;20199;-65
2022/05/06 03:41:16;;;;;;;11.70;8.15;;;8.20;99.90;;;;;;5015496;28;20056;-65
2022/05/06 03:43:42;;;;;;;15.50;9.00;;;8.10;99.90;;;;;;5014160;28;20049;-66
2022/05/06 03:46:07;;;;;;;15.10;8.68;;;8.10;99.90;;;;;;5014170;28;20049;-65
2022/05/06 03:48:36;;;;;;;16.88;9.02;;;8.10;99.90;;;;;;5015597;28;20053;-65
2022/05/06 03:51:20;;;;;;;13.60;9.15;;;8.10;99.90;;;;;;5014748;28;20056;-65
2022/05/06 03:53:49;;;;;;;13.60;7.82;;;8.00;99.90;;;;;;5013829;28;20098;-65
2022/05/06 03:56:15;;;;;;;16.58;11.25;;;8.00;99.90;;;;;;5015892;28;20107;-65
2022/05/06 03:58:41;;;;;;;17.50;11.77;;;8.10;99.90;;;;;;5014911;28;20057;-65
2022/05/06 04:01:10;;;;;;;22.05;11.15;;;8.10;99.90;;;;;;5014097;28;20053;-65
2022/05/06 04:03:36;;;;;;;21.60;11.35;;;8.20;99.90;;;;;;5013743;28;20081;-65
2022/05/06 04:06:02;;;;;;;23.77;13.07;;;8.30;99.90;;;;;;5013084;28;20059;-65
2022/05/06 04:08:27;;;;;;;31.83;15.48;;;8.40;99.90;;;;;;5014905;28;20046;-65
2022/05/06 04:10:54;;;;;;;30.63;15.63;;;8.50;99.90;;;;;;5015256;28;20887;-65
2022/05/06 04:13:19;;;;;;;28.38;15.65;;;8.60;99.90;;;;;;5012969;28;20099;-65
2022/05/06 04:15:46;;;;;;;38.65;14.98;;;8.60;99.90;;;;;;5013196;28;20065;-65
2022/05/06 04:18:11;;;;;;;44.22;14.68;;;8.70;99.90;;;;;;5014941;28;20056;-65
2022/05/06 04:23:30;;;;;;;27.40;13.63;;;8.80;99.90;;;;;;5013853;28;20921;-65
2022/05/06 04:26:02;;;;;;;24.10;13.20;;;8.90;99.90;;;;;;5015184;28;20052;-65
2022/05/06 04:28:28;;;;;;;29.38;14.00;;;9.00;99.90;;;;;;5015511;28;20060;-65
2022/05/06 04:30:54;;;;;;;31.23;17.10;;;9.00;99.90;;;;;;5015349;28;20045;-65
2022/05/06 04:33:21;;;;;;;17.80;9.95;;;9.00;99.90;;;;;;5013417;28;20041;-65
2022/05/06 04:35:47;;;;;;;30.40;15.43;;;9.10;99.90;;;;;;5015042;28;20045;-65
2022/05/06 04:38:13;;;;;;;23.73;13.07;;;9.10;99.90;;;;;;5015202;28;20099;-65
2022/05/06 04:40:40;;;;;;;21.50;10.40;;;9.10;99.90;;;;;;5014521;28;20136;-65
2022/05/06 04:43:09;;;;;;;19.02;11.32;;;9.10;99.90;;;;;;5014024;28;20623;-66
2022/05/06 04:45:38;;;;;;;19.70;11.77;;;9.20;99.90;;;;;;5013000;28;20077;-65
2022/05/06 04:48:06;;;;;;;18.52;11.38;;;9.10;99.90;;;;;;5012293;28;20045;-65
2022/05/06 04:50:33;;;;;;;20.65;12.52;;;9.20;99.90;;;;;;5011214;28;20054;-65
2022/05/06 04:52:58;;;;;;;17.90;10.57;;;9.20;99.90;;;;;;5012777;28;20045;-65
2022/05/06 04:55:24;;;;;;;18.52;11.10;;;9.30;99.90;;;;;;5012107;28;20084;-64
2022/05/06 04:57:49;;;;;;;20.33;9.20;;;9.30;99.90;;;;;;5010642;28;20174;-65
2022/05/06 05:00:15;;;;;;;14.13;9.75;;;9.30;99.90;;;;;;5012370;28;20445;-64
2022/05/06 05:02:41;;;;;;;15.25;9.27;;;9.40;99.90;;;;;;5010525;28;20793;-64
2022/05/06 05:05:07;;;;;;;17.90;10.38;;;9.50;99.90;;;;;;5012296;28;20164;-64
2022/05/06 05:07:33;;;;;;;16.30;8.93;;;9.50;99.90;;;;;;5012463;28;20076;-64
2022/05/06 05:09:58;;;;;;;16.60;9.77;;;9.60;99.90;;;;;;5010640;28;20153;-65
2022/05/06 05:12:24;;;;;;;15.02;7.88;;;9.70;99.90;;;;;;4993151;28;20179;-64
2022/05/06 05:14:51;;;;;;;12.18;7.55;;;9.70;99.90;;;;;;5003143;28;20092;-64
2022/05/06 05:17:17;;;;;;;14.25;8.82;;;9.80;99.90;;;;;;5001502;28;20045;-65
2022/05/06 05:19:43;;;;;;;13.18;6.97;;;9.90;99.90;;;;;;4999713;28;20053;-64
2022/05/06 05:22:09;;;;;;;10.60;7.35;;;10.00;99.90;;;;;;5000275;28;20050;-65
2022/05/06 05:24:35;;;;;;;14.15;6.85;;;10.00;99.90;;;;;;4999487;28;20044;-65
2022/05/06 05:27:01;;;;;;;13.60;7.35;;;10.10;99.90;;;;;;4994442;28;20607;-65
2022/05/06 05:29:26;;;;;;;12.30;7.78;;;10.10;99.90;;;;;;4999159;28;20045;-64
2022/05/06 05:31:53;;;;;;;11.02;7.40;;;10.10;99.90;;;;;;4997305;28;20041;-65
2022/05/06 05:34:18;;;;;;;13.48;8.35;;;10.10;99.90;;;;;;4995332;28;20049;-65
2022/05/06 05:36:45;;;;;;;14.77;8.68;;;10.20;99.90;;;;;;5007697;28;20068;-65
2022/05/06 05:39:11;;;;;;;9.23;6.47;;;10.20;99.90;;;;;;5000924;28;20049;-65
2022/05/06 05:41:38;;;;;;;13.13;8.27;;;10.20;99.90;;;;;;5000303;28;20033;-65
2022/05/06 05:49:33;;;;;;;14.50;8.60;;;10.00;99.90;;;;;;5002893;28;20041;-65
2022/05/06 05:51:59;;;;;;;14.95;8.95;;;10.00;99.90;;;;;;5003820;28;20563;-64
2022/05/06 05:54:24;;;;;;;14.93;10.15;;;10.00;99.90;;;;;;5003581;28;20042;-64
2022/05/06 05:56:50;;;;;;;12.55;7.95;;;10.00;99.90;;;;;;5002843;28;20078;-65
2022/05/06 05:59:16;;;;;;;11.93;7.07;;;10.00;99.90;;;;;;5001930;28;20080;-64
2022/05/06 06:01:41;;;;;;;15.05;9.30;;;10.30;99.90;;;;;;4996765;28;20046;-65
2022/05/06 06:04:07;;;;;;;18.50;10.50;;;10.50;99.90;;;;;;4992981;28;20133;-64
2022/05/06 06:06:32;;;;;;;15.18;9.55;;;10.80;99.90;;;;;;4993501;28;20173;-64
2022/05/06 06:08:58;;;;;;;17.77;9.57;;;11.00;99.90;;;;;;4999674;28;20049;-64
2022/05/06 06:11:23;;;;;;;17.23;10.98;;;11.20;99.90;;;;;;5014193;28;20057;-64
2022/05/06 06:13:49;;;;;;;19.65;10.15;;;11.30;99.90;;;;;;5013339;28;20054;-64
2022/05/06 06:16:14;;;;;;;14.82;8.65;;;11.50;99.90;;;;;;5012737;28;20053;-64
2022/05/06 06:18:40;;;;;;;18.92;11.45;;;11.60;99.90;;;;;;4999334;28;20048;-64
2022/05/06 06:21:06;;;;;;;16.55;9.43;;;11.60;99.90;;;;;;4998598;28;20045;-65
2022/05/06 06:23:32;;;;;;;15.48;10.18;;;11.60;99.90;;;;;;4994523;28;20049;-65
2022/05/06 06:25:58;;;;;;;17.15;9.57;;;11.70;99.90;;;;;;4992394;28;20049;-65
2022/05/06 06:28:23;;;;;;;16.30;9.02;;;11.60;99.90;;;;;;4994922;28;20049;-65
2022/05/06 06:30:49;;;;;;;14.13;9.60;;;11.60;99.90;;;;;;4994789;28;20069;-66
2022/05/06 06:33:15;;;;;;;19.35;10.82;;;11.50;99.90;;;;;;4999581;28;20953;-65
2022/05/06 06:35:41;;;;;;;18.05;12.05;;;11.40;99.90;;;;;;5010118;28;20053;-64
2022/05/06 06:38:06;;;;;;;20.55;11.80;;;11.40;99.90;;;;;;4998617;28;20124;-65
2022/05/06 06:40:32;;;;;;;17.60;10.40;;;11.40;99.90;;;;;;5003615;28;20659;-64
2022/05/06 06:43:05;;;;;;;18.77;10.73;;;11.40;99.90;;;;;;5000215;28;20041;-64
2022/05/06 06:45:31;;;;;;;;;;;11.30;99.90;;;;;;4994928;28;20068;-64
2022/05/06 06:48:00;;;;;;;17.15;12.50;;;11.20;99.90;;;;;;5002891;28;19924;-64
2022/05/06 06:50:26;;;;;;;24.63;13.48;;;11.20;99.90;;;;;;5002388;28;20041;-65
2022/05/06 06:52:52;;;;;;;20.25;11.15;;;11.20;99.90;;;;;;4994815;28;20038;-65
2022/05/06 06:55:18;;;;;;;21.33;12.75;;;11.20;99.90;;;;;;4997210;28;20049;-64
2022/05/06 06:57:44;;;;;;;20.20;11.75;;;11.30;99.90;;;;;;4995075;28;20083;-64
2022/05/06 07:00:10;;;;;;;18.75;11.10;;;11.30;99.90;;;;;;5000359;28;20049;-64
2022/05/06 07:02:36;;;;;;;19.67;12.07;;;11.30;99.90;;;;;;4998959;28;20766;-64
2022/05/06 07:05:03;;;;;;;20.50;10.43;;;11.40;99.90;;;;;;5003306;28;20050;-64
2022/05/06 07:12:57;;;;;;;17.33;11.63;;;11.90;99.90;;;;;;5000134;28;20046;-64
2022/05/06 07:15:23;;;;;;;21.27;11.35;;;12.00;99.90;;;;;;4994891;28;20049;-64
2022/05/06 07:17:49;;;;;;;24.17;12.35;;;12.20;99.90;;;;;;5004512;28;20119;-64
2022/05/06 07:20:15;;;;;;;17.60;11.00;;;12.30;99.90;;;;;;5005513;28;20221;-64
2022/05/06 07:22:41;;;;;;;18.60;12.30;;;12.50;99.90;;;;;;4997563;28;20034;-62
2022/05/06 07:25:08;;;;;;;20.27;10.52;;;12.60;99.90;;;;;;5002699;28;20049;-65
2022/05/06 07:27:36;;;;;;;19.95;11.73;;;12.70;99.90;;;;;;4995389;28;20045;-65
2022/05/06 07:30:03;;;;;;;15.60;10.55;;;12.90;99.90;;;;;;4999931;28;20669;-64
2022/05/06 07:32:30;;;;;;;25.05;12.65;;;13.00;99.90;;;;;;4999554;28;20077;-65
2022/05/06 07:34:56;;;;;;;22.20;12.65;;;13.20;99.90;;;;;;5008895;28;20135;-64
2022/05/06 07:37:21;;;;;;;16.05;11.90;;;13.40;99.90;;;;;;5002422;28;20046;-65
2022/05/06 07:39:47;;;;;;;17.17;10.75;;;13.50;99.90;;;;;;4997210;28;20080;-64
2022/05/06 07:42:12;;;;;;;19.85;11.18;;;13.50;99.90;;;;;;5004147;28;20441;-64
2022/05/06 07:44:38;;;;;;;15.38;10.00;;;13.60;99.90;;;;;;5006984;28;21537;-65
2022/05/06 07:47:04;;;;;;;20.73;12.45;;;13.80;99.90;;;;;;4998984;28;20060;-65
2022/05/06 07:49:30;;;;;;;23.23;14.15;;;13.80;99.90;;;;;;4993756;28;20755;-64
2022/05/06 07:51:55;;;;;;;18.42;10.55;;;13.80;99.90;;;;;;4994827;28;20796;-64
2022/05/06 07:54:21;;;;;;;25.98;14.15;;;13.90;99.90;;;;;;5006551;28;20484;-64
2022/05/06 07:56:47;;;;;;;21.65;14.40;;;13.90;99.90;;;;;;5007469;28;20041;-65
2022/05/06 07:59:12;;;;;;;26.00;14.23;;;14.10;99.90;;;;;;4999705;28;20081;-64
2022/05/06 08:04:38;;;;;;;17.10;11.38;;;14.20;99.90;;;;;;4996209;28;20316;-65
2022/05/06 08:07:08;;;;;;;18.52;13.32;;;14.40;99.90;;;;;;5010803;28;20172;-64
2022/05/06 08:09:34;;;;;;;;;;;14.60;99.90;;;;;;4657116;28;9999895;-63
2022/05/06 08:12:00;;;;;;;20.83;13.68;;;14.70;99.90;;;;;;5012004;28;20027;-62
2022/05/06 08:14:26;;;;;;;26.25;13.13;;;14.80;99.90;;;;;;5010923;28;20587;-63
2022/05/06 08:16:52;;;;;;;19.50;11.57;;;15.10;99.90;;;;;;5008039;28;20038;-65
2022/05/06 08:19:18;;;;;;;18.70;11.38;;;15.50;99.90;;;;;;4991731;28;20052;-65
2022/05/06 08:21:44;;;;;;;20.73;11.18;;;15.80;99.90;;;;;;4991670;28;20632;-63
2022/05/06 08:24:10;;;;;;;23.52;11.95;;;16.50;99.90;;;;;;4993011;28;20053;-63
2022/05/06 08:26:35;;;;;;;16.67;11.32;;;17.60;99.90;;;;;;4998130;28;20045;-64
2022/05/06 08:29:02;;;;;;;17.30;10.68;;;18.30;99.90;;;;;;4996014;28;20254;-64
2022/05/06 08:31:27;;;;;;;16.15;9.05;;;19.60;99.90;;;;;;5000178;28;20871;-64
2022/05/06 08:33:54;;;;;;;14.82;10.73;;;20.40;99.90;;;;;;4996838;28;20045;-63
2022/05/06 08:36:19;;;;;;;16.40;9.60;;;20.20;99.90;;;;;;4989953;28;20761;-64
2022/05/06 08:38:45;;;;;;;16.05;9.60;;;20.20;99.90;;;;;;4994056;28;20069;-64
2022/05/06 08:41:12;;;;;;;13.35;8.38;;;20.20;99.90;;;;;;4994607;28;20052;-64
2022/05/06 08:43:38;;;;;;;14.68;9.27;;;20.30;99.90;;;;;;4993788;28;20053;-63
2022/05/06 08:51:38;;;;;;;12.45;8.15;;;19.50;99.90;;;;;;5000058;28;20061;-64
2022/05/06 08:54:04;;;;;;;10.73;7.63;;;19.20;99.90;;;;;;4995887;28;20477;-63
2022/05/06 08:56:31;;;;;;;9.43;7.28;;;19.00;99.90;;;;;;4994077;28;20484;-64
2022/05/06 08:58:57;;;;;;;12.30;7.68;;;18.80;99.90;;;;;;4993479;28;20104;-63
2022/05/06 09:01:24;;;;;;;11.43;7.50;;;18.60;99.90;;;;;;4998402;28;20054;-63
2022/05/06 09:03:50;;;;;;;10.35;6.30;;;18.60;99.90;;;;;;4999298;28;20358;-63
2022/05/06 09:06:26;;;;;;;8.80;7.03;;;18.40;99.90;;;;;;5002378;28;20900;-63
2022/05/06 09:08:53;;;;;;;11.93;6.75;;;18.50;99.90;;;;;;4995652;28;20152;-64
2022/05/06 09:14:06;;;;;;;9.65;5.72;;;19.80;99.90;;;;;;5008643;28;20480;-63
2022/05/06 09:16:40;;;;;;;8.50;5.38;;;20.80;99.90;;;;;;5000279;28;20136;-64
2022/05/06 09:19:13;;;;;;;6.97;5.03;;;21.30;99.70;;;;;;5002884;28;20056;-63
2022/05/06 09:21:40;;;;;;;8.32;5.30;;;21.30;95.80;;;;;;5007460;28;20144;-64
2022/05/06 09:24:19;;;;;;;7.00;5.55;;;21.60;97.80;;;;;;4997947;28;20054;-64
2022/05/06 09:27:05;;;;;;;8.13;5.60;;;22.20;93.90;;;;;;5002976;28;20061;-64
2022/05/06 09:29:34;;;;;;;7.68;4.03;;;22.40;93.10;;;;;;4998153;28;20042;-64
2022/05/06 09:32:16;;;;;;;5.07;4.57;;;22.60;96.40;;;;;;5007477;28;20045;-64
2022/05/06 09:34:42;;;;;;;5.43;3.73;;;22.30;92.20;;;;;;4997328;28;20054;-64
2022/05/06 09:37:09;;;;;;;3.95;3.05;;;22.00;95.60;;;;;;4995682;28;20307;-64
2022/05/06 09:39:38;;;;;;;5.43;4.13;;;22.00;94.70;;;;;;4997398;28;20772;-63
2022/05/06 09:42:05;;;;;;;4.82;4.22;;;21.90;94.70;;;;;;5002956;28;20034;-64
2022/05/06 09:44:32;;;;;;;5.18;4.03;;;21.70;93.30;;;;;;4995199;28;20050;-64
2022/05/06 09:47:12;;;;;;;5.43;4.00;;;22.30;94.70;;;;;;4994984;28;20099;-63
2022/05/06 09:49:42;;;;;;;4.53;3.97;;;22.60;90.90;;;;;;4995079;28;20046;-65
2022/05/06 09:52:14;;;;;;;5.07;3.88;;;23.50;91.50;;;;;;4994494;28;20048;-65
2022/05/06 09:54:44;;;;;;;4.38;3.72;;;23.90;91.50;;;;;;4998303;28;21086;-65
2022/05/06 09:57:11;;;;;;;5.05;3.45;;;24.10;90.00;;;;;;4997584;28;20119;-65
2022/05/06 09:59:37;;;;;;;4.65;3.00;;;24.20;92.60;;;;;;4998671;28;20046;-65
2022/05/06 10:02:08;;;;;;;4.32;3.25;;;24.50;92.20;;;;;;5001252;28;20632;-65
2022/05/06 10:04:35;;;;;;;3.58;2.67;;;24.60;84.80;;;;;;4994189;28;20739;-65
2022/05/06 10:07:01;;;;;;;3.13;2.60;;;24.70;90.00;;;;;;5003108;28;20041;-65
2022/05/06 10:09:31;;;;;;;2.75;2.38;;;24.60;86.30;;;;;;5007823;28;20160;-65
2022/05/06 10:12:01;;;;;;;3.20;2.70;;;24.40;85.90;;;;;;5004043;28;20568;-65
2022/05/06 10:14:26;;;;;;;3.58;2.70;;;24.00;84.90;;;;;;5002742;28;20037;-65
2022/05/06 10:16:52;;;;;;;2.50;2.30;;;24.10;88.90;;;;;;4997103;28;20761;-65
2022/05/06 10:19:44;;;;;;;3.33;2.80;;;24.20;86.60;;;;;;5014849;28;20053;-65
2022/05/06 10:22:10;;;;;;;2.90;2.50;;;24.50;82.80;;;;;;5015773;28;20120;-65
2022/05/06 10:24:49;;;;;;;4.45;2.75;;;24.20;86.50;;;;;;5015737;28;20789;-65
2022/05/06 10:27:22;;;;;;;3.15;2.33;;;24.50;82.90;;;;;;5014693;28;20563;-65
2022/05/06 10:32:56;;;;;;;3.17;2.88;;;24.90;84.40;;;;;;5001762;28;20077;-65
2022/05/06 10:35:37;;;;;;;3.42;3.13;;;24.60;78.40;;;;;;5005928;28;20074;-65
2022/05/06 10:38:24;;;;;;;3.10;2.60;;;24.80;79.20;;;;;;4995508;28;20109;-66
2022/05/06 10:40:57;;;;;;;6.15;3.05;;;24.80;80.30;;;;;;4996519;28;20576;-65
2022/05/06 10:43:41;;;;;;;;;;;24.80;80.60;;;;;;5017834;28;20612;-64
2022/05/06 10:46:07;;;;;;;2.47;2.28;;;24.70;77.70;;;;;;5012749;28;19932;-65
2022/05/06 10:48:33;;;;;;;3.03;2.60;;;24.80;83.40;;;;;;5007436;28;20720;-65
2022/05/06 10:51:24;;;;;;;2.60;2.40;;;24.70;82.60;;;;;;4995028;28;20056;-65
2022/05/06 10:53:51;;;;;;;2.92;2.65;;;24.50;77.60;;;;;;5002306;28;20057;-65
2022/05/06 10:56:17;;;;;;;3.80;3.50;;;24.40;78.40;;;;;;5015655;28;20629;-65
2022/05/06 10:58:43;;;;;;;4.28;2.97;;;24.30;80.70;;;;;;5013988;28;20045;-65
2022/05/06 11:01:16;;;;;;;4.00;2.60;;;24.10;81.30;;;;;;5011107;28;20057;-65
2022/05/06 11:03:54;;;;;;;3.45;3.03;;;23.90;78.50;;;;;;5014783;28;20045;-65
2022/05/06 11:06:21;;;;;;;4.25;2.88;;;23.70;78.00;;;;;;5014171;28;20118;-65
2022/05/06 11:08:46;;;;;;;3.92;3.03;;;23.70;80.10;;;;;;5007670;28;20049;-65
2022/05/06 11:11:19;;;;;;;4.97;3.40;;;23.60;77.40;;;;;;4995305;28;20057;-65
2022/05/06 11:13:47;;;;;;;3.65;2.55;;;23.70;78.30;;;;;;4993199;28;20078;-65
2022/05/06 11:16:14;;;;;;;4.05;3.63;;;23.60;77.80;;;;;;4994949;28;20060;-65
2022/05/06 11:18:43;;;;;;;3.35;2.78;;;23.30;78.30;;;;;;5011384;28;20876;-65
2022/05/06 11:21:20;;;;;;;3.53;2.30;;;23.40;78.30;;;;;;5015287;28;20099;-65
2022/05/06 11:23:46;;;;;;;3.30;3.00;;;23.40;75.90;;;;;;5015629;28;20061;-65
2022/05/06 11:26:23;;;;;;;4.00;2.78;;;23.30;77.90;;;;;;5015430;28;20076;-65
2022/05/06 11:29:02;;;;;;;3.08;2.78;;;23.40;76.20;;;;;;5015125;28;20045;-65
2022/05/06 11:31:28;;;;;;;4.07;3.58;;;23.50;76.50;;;;;;5014339;28;20045;-66
2022/05/06 11:33:58;;;;;;;4.20;3.80;;;23.50;76.90;;;;;;5014807;28;20053;-65
2022/05/06 11:36:24;;;;;;;3.03;2.72;;;23.40;76.20;;;;;;5015682;28;20719;-65
2022/05/06 11:38:49;;;;;;;4.10;2.30;;;23.40;75.70;;;;;;5015877;28;20057;-65
2022/05/06 11:41:17;;;;;;;3.55;2.58;;;23.40;74.90;;;;;;5015501;28;20053;-65
2022/05/06 11:43:44;;;;;;;3.03;2.10;;;23.20;75.30;;;;;;5016187;28;20060;-65
2022/05/06 11:49:06;;;;;;;2.55;1.67;;;23.50;73.50;;;;;;5015793;28;20053;-65
2022/05/06 11:51:38;;;;;;;2.38;2.17;;;23.40;74.00;;;;;;5015145;28;20053;-65
2022/05/06 11:54:05;;;;;;;2.72;1.92;;;23.40;73.80;;;;;;5014929;28;20064;-65
2022/05/06 11:56:31;;;;;;;3.22;1.92;;;23.40;73.00;;;;;;5014611;28;20103;-65
2022/05/06 11:58:58;;;;;;;2.30;1.95;;;23.50;73.70;;;;;;5015044;28;20057;-65
2022/05/06 12:01:32;;;;;;;2.85;2.35;;;23.50;73.70;;;;;;5016536;28;20034;-65
2022/05/06 12:04:08;;;;;;;1.90;1.40;;;23.60;72.40;;;;;;5016045;28;20492;-65
2022/05/06 12:06:41;;;;;;;2.72;2.08;;;23.70;73.10;;;;;;5004394;28;20049;-65
2022/05/06 12:09:14;;;;;;;1.70;1.60;;;23.60;72.70;;;;;;5002778;28;20037;-65
2022/05/06 12:11:41;;;;;;;3.10;2.08;;;23.60;73.30;;;;;;5014885;28;20072;-65
2022/05/06 12:14:09;;;;;;;4.35;2.42;;;23.30;73.60;;;;;;5017174;28;20378;-65
2022/05/06 12:16:35;;;;;;;1.92;1.55;;;23.20;72.90;;;;;;5015449;28;20057;-65
2022/05/06 12:19:00;;;;;;;1.65;1.55;;;23.20;74.10;;;;;;5014179;28;20053;-65
2022/05/06 12:21:27;;;;;;;2.38;2.17;;;23.30;73.90;;;;;;5016216;28;20045;-65
2022/05/06 12:24:03;;;;;;;2.05;1.73;;;23.10;74.60;;;;;;5015553;28;20569;-65
2022/05/06 12:26:30;;;;;;;2.30;2.10;;;23.00;74.50;;;;;;5016691;28;20056;-65
2022/05/06 12:28:55;;;;;;;2.33;2.13;;;22.60;75.90;;;;;;5016760;28;20103;-65
2022/05/06 12:31:29;;;;;;;1.80;1.50;;;22.60;77.10;;;;;;5016041;28;20041;-66
2022/05/06 12:34:07;;;;;;;2.75;1.70;;;22.80;76.90;;;;;;5014165;28;20124;-65
2022/05/06 12:36:34;;;;;;;2.40;2.20;;;23.10;76.60;;;;;;5013498;28;20049;-64
2022/05/06 12:38:59;;;;;;;2.38;2.13;;;23.30;75.80;;;;;;5014289;28;20048;-65
2022/05/06 12:41:34;;;;;;;2.15;1.95;;;23.20;76.30;;;;;;5013991;28;20907;-65
2022/05/06 12:44:21;;;;;;;3.25;1.70;;;23.20;75.90;;;;;;5013937;28;20046;-65
2022/05/06 12:46:47;;;;;;;2.22;1.55;;;23.20;75.50;;;;;;5013502;28;20103;-65
2022/05/06 12:51:58;;;;;;;3.10;1.60;;;22.90;76.60;;;;;;5011836;28;20148;-65
2022/05/06 12:54:26;;;;;;;2.92;1.70;;;23.10;76.00;;;;;;5001733;28;20768;-65
2022/05/06 12:56:51;;;;;;;1.90;1.70;;;23.20;76.20;;;;;;5004841;28;20132;-65
2022/05/06 12:59:17;;;;;;;2.20;1.70;;;22.90;76.60;;;;;;5005982;28;20052;-65
2022/05/06 13:01:43;;;;;;;2.65;1.77;;;22.50;77.50;;;;;;5006535;28;20128;-65
2022/05/06 13:04:09;;;;;;;2.92;1.00;;;22.50;77.70;;;;;;4992367;28;20056;-66
2022/05/06 13:06:34;;;;;;;2.42;1.30;;;22.60;78.60;;;;;;4992709;28;20046;-65
2022/05/06 13:09:00;;;;;;;1.58;1.30;;;22.80;77.80;;;;;;4996823;28;20045;-65
2022/05/06 13:11:26;;;;;;;1.38;1.17;;;22.80;78.00;;;;;;5012779;28;20112;-65
2022/05/06 13:13:52;;;;;;;3.97;1.70;;;22.90;78.10;;;;;;5011733;28;20045;-66
2022/05/06 13:16:18;;;;;;;1.88;1.63;;;22.90;78.10;;;;;;5012824;28;20056;-65
2022/05/06 13:18:44;;;;;;;2.20;1.80;;;22.70;77.70;;;;;;5011707;28;20053;-65
2022/05/06 13:21:10;;;;;;;2.10;1.50;;;22.70;78.70;;;;;;5011223;28;20053;-65
2022/05/06 13:23:37;;;;;;;1.60;1.20;;;22.50;78.60;;;;;;5011698;28;20846;-64
2022/05/06 13:26:03;;;;;;;1.02;1.00;;;22.20;78.40;;;;;;5012865;28;20148;-66